Time;durP1;ratioP1;P1;durP2;ratioP2;P2;SDS_P1;SDS_P2;PMS_P1;PMS_P2;Temp;Humidity;BMP_temperature;BMP_pressure;BME280_temperature;BME280_humidity;BME280_pressure;Samples;Min_cycle;Max_cycle;Signal;HPM_P1;HPM_P2
2022/02/23 00:01:36;;;;;;;56.67;29.70;;;;;;;1.40;76.86;100543.31;1431090;91;21427;-81
2022/02/23 00:04:04;;;;;;;53.23;28.60;;;;;;;1.27;77.87;100547.09;1433561;90;21605;-82
2022/02/23 00:06:31;;;;;;;48.03;27.63;;;;;;;1.13;79.12;100543.93;1430212;90;21617;-82
2022/02/23 00:08:58;;;;;;;52.73;27.00;;;;;;;1.06;78.50;100538.66;1433631;91;21731;-83
2022/02/23 00:11:25;;;;;;;47.40;23.70;;;;;;;1.03;79.24;100538.83;1433363;90;21714;-82
2022/02/23 00:13:52;;;;;;;43.27;23.37;;;;;;;0.96;78.59;100538.34;1432572;90;22851;-83
2022/02/23 00:16:19;;;;;;;55.33;26.90;;;;;;;0.93;78.00;100539.81;1441036;90;21562;-83
2022/02/23 00:18:47;;;;;;;45.43;26.37;;;;;;;0.89;78.13;100540.45;1438057;90;21759;-83
2022/02/23 00:21:15;;;;;;;49.47;25.20;;;;;;;0.79;78.44;100532.73;1438778;90;21711;-83
2022/02/23 00:23:42;;;;;;;45.20;23.43;;;;;;;0.69;78.14;100530.22;1447647;90;21584;-83
2022/02/23 00:26:10;;;;;;;49.17;23.80;;;;;;;0.63;78.74;100534.46;1439546;90;21647;-79
2022/02/23 00:28:36;;;;;;;44.33;23.60;;;;;;;0.61;79.09;100537.16;1444502;90;22661;-82
2022/02/23 00:31:04;;;;;;;47.23;22.43;;;;;;;0.60;79.91;100537.23;1436108;90;22733;-82
2022/02/23 00:33:31;;;;;;;47.20;24.77;;;;;;;0.64;79.58;100534.86;1442755;90;22695;-83
2022/02/23 00:35:57;;;;;;;54.67;21.23;;;;;;;0.65;79.93;100533.93;1445734;90;21690;-83
2022/02/23 00:38:25;;;;;;;41.30;22.93;;;;;;;0.67;79.59;100529.48;1420518;90;21847;-83
2022/02/23 00:40:52;;;;;;;41.70;21.97;;;;;;;0.70;79.23;100524.58;1438903;90;21759;-82
2022/02/23 00:43:19;;;;;;;34.93;19.37;;;;;;;0.71;80.78;100518.43;1438363;90;21756;-82
2022/02/23 00:45:46;;;;;;;39.30;20.83;;;;;;;0.65;81.46;100517.83;1444541;90;23098;-82
2022/02/23 00:48:13;;;;;;;45.20;23.93;;;;;;;0.67;81.71;100520.38;1438388;90;22945;-84
2022/02/23 00:50:40;;;;;;;46.33;23.83;;;;;;;0.67;82.40;100521.67;1447974;90;22225;-82
2022/02/23 00:53:07;;;;;;;49.57;25.60;;;;;;;0.68;82.77;100520.73;1444578;90;21786;-82
2022/02/23 00:55:34;;;;;;;39.17;20.33;;;;;;;0.72;83.16;100519.67;1443745;90;22308;-83
2022/02/23 00:58:01;;;;;;;35.77;20.60;;;;;;;0.77;82.55;100520.23;1440354;90;21655;-82
2022/02/23 01:00:28;;;;;;;34.47;18.83;;;;;;;0.79;82.25;100517.09;1443335;90;21824;-82
2022/02/23 01:02:55;;;;;;;43.23;21.30;;;;;;;0.80;82.01;100512.72;1442290;90;22639;-82
2022/02/23 01:05:22;;;;;;;37.93;19.40;;;;;;;0.83;81.55;100517.30;1443269;90;21609;-82
2022/02/23 01:07:50;;;;;;;35.17;18.10;;;;;;;0.85;81.15;100515.92;1450462;90;21652;-82
2022/02/23 01:10:17;;;;;;;30.30;16.27;;;;;;;0.86;81.93;100518.89;1445761;90;21557;-82
2022/02/23 01:12:44;;;;;;;31.10;17.13;;;;;;;0.84;81.22;100529.42;1442900;90;21682;-83
2022/02/23 01:15:12;;;;;;;31.27;16.37;;;;;;;0.78;81.48;100521.94;1432660;90;21563;-82
2022/02/23 01:17:40;;;;;;;31.27;16.07;;;;;;;0.77;81.21;100524.61;1416549;91;21713;-82
2022/02/23 01:20:08;;;;;;;31.97;18.17;;;;;;;0.78;81.15;100521.94;1432638;91;22757;-82
2022/02/23 01:22:36;;;;;;;33.40;15.77;;;;;;;0.80;81.17;100521.84;1439343;91;21763;-83
2022/02/23 01:25:04;;;;;;;27.50;15.37;;;;;;;0.81;81.04;100521.77;1432259;90;21643;-83
2022/02/23 01:27:32;;;;;;;25.97;14.90;;;;;;;0.86;80.28;100519.77;1411986;91;21459;-81
2022/02/23 01:29:59;;;;;;;26.90;15.23;;;;;;;0.91;79.99;100512.98;1433493;91;21760;-83
2022/02/23 01:32:26;;;;;;;34.80;18.23;;;;;;;0.95;79.82;100509.73;1430091;91;21577;-83
2022/02/23 01:34:53;;;;;;;32.10;16.00;;;;;;;0.98;79.63;100509.56;1430138;90;21603;-83
2022/02/23 01:37:21;;;;;;;30.07;17.87;;;;;;;0.98;79.37;100508.27;1431606;91;21645;-82
2022/02/23 01:39:49;;;;;;;30.37;15.80;;;;;;;0.98;79.25;100498.70;1414206;91;21607;-83
2022/02/23 01:42:17;;;;;;;28.40;16.03;;;;;;;0.93;79.47;100498.58;1437095;91;21533;-83
2022/02/23 01:44:44;;;;;;;29.03;15.40;;;;;;;0.81;79.59;100495.72;1435058;91;21710;-83
2022/02/23 01:47:12;;;;;;;30.20;17.40;;;;;;;0.76;79.81;100501.63;1434728;91;21713;-82
2022/02/23 01:49:39;;;;;;;32.87;16.47;;;;;;;0.77;79.41;100500.70;1427960;90;21636;-82
2022/02/23 01:52:06;;;;;;;33.67;18.37;;;;;;;0.85;79.45;100508.11;1436280;91;21586;-82
2022/02/23 01:54:33;;;;;;;41.10;22.33;;;;;;;0.87;79.26;100511.01;1434990;91;22595;-82
2022/02/23 01:57:00;;;;;;;36.67;19.90;;;;;;;0.88;79.42;100506.64;1441187;91;23228;-82
2022/02/23 01:59:28;;;;;;;38.13;19.63;;;;;;;0.88;79.68;100510.08;1437466;91;21538;-82
2022/02/23 02:01:55;;;;;;;36.10;18.43;;;;;;;0.89;79.97;100506.56;1433889;91;21654;-82
2022/02/23 02:04:22;;;;;;;37.30;19.33;;;;;;;0.94;80.16;100508.06;1431129;91;21553;-82
2022/02/23 02:06:50;;;;;;;35.73;18.23;;;;;;;1.00;79.95;100509.03;1425945;91;21583;-82
2022/02/23 02:09:19;;;;;;;38.83;20.13;;;;;;;1.06;79.59;100504.30;1437231;91;21655;-82
2022/02/23 02:11:46;;;;;;;36.43;19.43;;;;;;;1.12;79.49;100503.12;1436271;90;21646;-81
2022/02/23 02:14:13;;;;;;;36.37;20.00;;;;;;;1.15;79.63;100502.13;1421625;90;21696;-81
2022/02/23 02:16:40;;;;;;;41.73;23.97;;;;;;;1.17;79.42;100494.59;1433539;90;21697;-83
2022/02/23 02:19:08;;;;;;;43.20;23.97;;;;;;;1.18;79.51;100499.34;1425617;91;21722;-82
2022/02/23 02:21:57;;;;;;;37.97;22.37;;;;;;;1.18;79.32;100500.20;1430211;91;21750;-83
2022/02/23 02:24:28;;;;;;;36.73;21.37;;;;;;;1.19;79.31;100499.73;1426834;91;23721;-82
2022/02/23 02:26:57;;;;;;;39.83;21.05;;;;;;;1.20;79.35;100499.63;1427953;91;21723;-82
2022/02/23 02:29:26;;;;;;;34.47;18.13;;;;;;;1.16;79.46;100501.22;1432284;90;22381;-82
2022/02/23 02:31:53;;;;;;;32.30;18.80;;;;;;;1.16;79.15;100508.56;1425902;91;22681;-82
2022/02/23 02:34:22;;;;;;;36.70;18.57;;;;;;;1.18;79.08;100508.03;1425516;90;22546;-82
2022/02/23 02:36:51;;;;;;;31.07;16.33;;;;;;;1.18;78.88;100514.55;1431691;90;21563;-82
2022/02/23 02:39:20;;;;;;;30.00;18.37;;;;;;;1.19;78.67;100507.09;1430278;91;21637;-81
2022/02/23 02:41:47;;;;;;;24.37;14.17;;;;;;;1.22;78.62;100511.30;1418849;91;21814;-81
2022/02/23 02:44:15;;;;;;;30.40;16.80;;;;;;;1.24;78.44;100508.98;1437993;91;21565;-81
2022/02/23 02:46:44;;;;;;;29.97;15.83;;;;;;;1.25;78.71;100506.73;1428989;91;22590;-81
2022/02/23 02:49:11;;;;;;;30.40;16.23;;;;;;;1.28;78.63;100517.00;1425805;91;21547;-81
2022/02/23 02:51:40;;;;;;;24.47;13.63;;;;;;;1.29;78.63;100514.75;1427130;91;21660;-81
2022/02/23 02:54:09;;;;;;;25.63;14.73;;;;;;;1.23;79.02;100507.75;1436483;91;21613;-81
2022/02/23 02:56:37;;;;;;;25.10;14.97;;;;;;;1.19;78.43;100508.39;1427427;91;22451;-81
2022/02/23 02:59:05;;;;;;;23.77;14.67;;;;;;;1.18;78.43;100511.07;1425281;91;22563;-81
2022/02/23 03:01:34;;;;;;;27.00;14.83;;;;;;;1.17;78.47;100509.41;1429324;91;22773;-81
2022/02/23 03:04:04;;;;;;;29.67;15.00;;;;;;;1.12;78.58;100518.77;1416005;92;22756;-81
2022/02/23 03:06:31;;;;;;;33.07;15.43;;;;;;;1.07;78.59;100522.12;1418013;92;23465;-82
2022/02/23 03:08:58;;;;;;;22.17;13.37;;;;;;;1.06;78.52;100514.73;1417496;92;21592;-82
2022/02/23 03:11:25;;;;;;;24.87;13.63;;;;;;;1.12;78.69;100518.77;1420878;92;21559;-82
2022/02/23 03:13:53;;;;;;;30.20;15.90;;;;;;;1.12;78.34;100522.67;1415180;92;21468;-82
2022/02/23 03:16:21;;;;;;;41.17;20.57;;;;;;;1.10;78.26;100527.16;1432791;90;21717;-82
2022/02/23 03:18:49;;;;;;;44.63;19.43;;;;;;;1.15;78.34;100527.72;1445581;90;21562;-82
2022/02/23 03:21:17;;;;;;;32.00;16.60;;;;;;;1.21;78.54;100533.92;1449117;90;22160;-82
2022/02/23 03:23:45;;;;;;;30.77;14.97;;;;;;;1.19;78.30;100530.55;1449197;90;21532;-82
2022/02/23 03:26:14;;;;;;;37.97;18.10;;;;;;;1.15;78.33;100529.49;1449911;90;21558;-82
2022/02/23 03:28:42;;;;;;;45.53;22.50;;;;;;;1.00;78.55;100533.79;1446866;90;22532;-82
2022/02/23 03:31:10;;;;;;;44.93;21.90;;;;;;;0.90;78.34;100531.69;1446308;90;22662;-82
2022/02/23 03:33:47;;;;;;;46.93;21.27;;;;;;;0.87;78.64;100534.47;1450103;90;21575;-82
2022/02/23 03:36:07;;;;;;;43.77;20.63;;;;;;;0.86;78.50;100540.61;1442412;90;21663;-82
2022/02/23 03:38:34;;;;;;;45.63;22.20;;;;;;;0.86;78.50;100547.12;1429767;90;21599;-81
2022/02/23 03:41:01;;;;;;;56.77;24.50;;;;;;;0.87;78.69;100547.49;1440187;90;21604;-82
2022/02/23 03:43:28;;;;;;;43.10;20.37;;;;;;;0.87;78.72;100554.47;1451630;90;21643;-82
2022/02/23 03:45:55;;;;;;;37.93;20.30;;;;;;;0.86;78.49;100550.16;1441685;90;21607;-83
2022/02/23 03:48:22;;;;;;;41.33;19.93;;;;;;;0.84;78.47;100545.05;1449196;90;21689;-84
2022/02/23 03:50:50;;;;;;;43.73;21.03;;;;;;;0.81;78.35;100541.78;1440655;90;21645;-85
2022/02/23 03:53:17;;;;;;;46.97;21.60;;;;;;;0.79;78.48;100534.03;1448433;90;22685;-85
2022/02/23 03:55:44;;;;;;;50.07;21.67;;;;;;;0.76;78.43;100531.59;1443990;90;22639;-81
2022/02/23 03:58:11;;;;;;;60.47;24.80;;;;;;;0.72;78.89;100535.30;1444419;90;22415;-82
2022/02/23 04:00:38;;;;;;;68.80;28.67;;;;;;;0.67;78.98;100536.00;1396641;86;21910;-91
2022/02/23 04:03:06;;;;;;;75.90;29.20;;;;;;;0.64;78.93;100537.47;1433952;89;21481;-90
2022/02/23 04:05:33;;;;;;;90.20;31.13;;;;;;;0.60;79.19;100537.23;1416439;90;22752;-91
2022/02/23 04:08:00;;;;;;;80.80;32.40;;;;;;;0.60;79.42;100543.74;1425407;91;21535;-91
2022/02/23 04:10:27;;;;;;;76.93;31.03;;;;;;;0.55;79.70;100539.27;1432115;90;21645;-91
2022/02/23 04:12:55;;;;;;;83.97;33.13;;;;;;;0.55;79.71;100539.27;1421835;90;22592;-91
2022/02/23 04:15:22;;;;;;;72.17;28.40;;;;;;;0.53;79.95;100542.40;1436543;90;21371;-90
2022/02/23 04:17:49;;;;;;;59.80;26.23;;;;;;;0.53;79.65;100546.30;1434722;90;22051;-90
2022/02/23 04:20:16;;;;;;;61.20;27.17;;;;;;;0.52;79.96;100544.60;1433330;90;21684;-90
2022/02/23 04:22:45;;;;;;;56.37;24.30;;;;;;;0.53;79.67;100546.30;1425013;90;21896;-90
2022/02/23 04:25:12;;;;;;;52.87;25.73;;;;;;;0.56;79.66;100534.42;1427404;91;21460;-94
2022/02/23 04:27:40;;;;;;;43.70;21.37;;;;;;;0.58;79.47;100526.08;1441844;90;21633;-92
2022/02/23 04:30:10;;;;;;;35.83;19.60;;;;;;;0.56;79.26;100520.09;1466727;90;21751;-92
2022/02/23 04:32:37;;;;;;;41.27;22.00;;;;;;;0.54;79.45;100523.23;1433042;90;21590;-92
2022/02/23 04:35:05;;;;;;;33.67;19.43;;;;;;;0.52;79.54;100527.67;1433313;90;21892;-91
2022/02/23 04:37:32;;;;;;;39.83;19.60;;;;;;;0.51;79.47;100523.40;1445534;90;21788;-94
2022/02/23 04:40:00;;;;;;;37.57;19.40;;;;;;;0.51;79.32;100528.61;1451772;89;22339;-89
2022/02/23 04:42:28;;;;;;;42.27;20.85;;;;;;;0.47;79.59;100530.54;1433688;90;21760;-89
2022/02/23 04:45:00;;;;;;;48.23;21.77;;;;;;;0.42;79.65;100533.38;1448652;90;21393;-88
2022/02/23 04:47:24;;;;;;;38.87;21.03;;;;;;;0.36;80.35;100528.95;1452322;89;22426;-88
2022/02/23 04:49:51;;;;;;;35.70;19.30;;;;;;;0.30;80.06;100531.87;1454202;89;21551;-89
2022/02/23 04:52:18;;;;;;;40.07;20.20;;;;;;;0.29;80.02;100536.25;1456450;89;21854;-88
2022/02/23 04:54:45;;;;;;;43.30;23.22;;;;;;;0.29;79.99;100534.95;1460708;89;21591;-88
2022/02/23 04:57:12;;;;;;;37.35;20.45;;;;;;;0.27;79.75;100532.88;1449776;89;21399;-89
2022/02/23 04:59:39;;;;;;;38.40;20.88;;;;;;;0.23;79.60;100532.64;1438040;89;22347;-89
2022/02/23 05:02:09;;;;;;;39.20;20.30;;;;;;;0.17;79.52;100536.86;1462161;88;21457;-89
2022/02/23 05:04:35;;;;;;;38.53;20.32;;;;;;;0.09;79.75;100547.69;1474546;88;21523;-89
2022/02/23 05:07:03;;;;;;;38.65;18.52;;;;;;;-0.02;80.39;100553.42;1466518;88;21398;-89
2022/02/23 05:09:30;;;;;;;35.55;18.95;;;;;;;-0.09;80.36;100545.52;1452331;89;21287;-89
2022/02/23 05:11:57;;;;;;;54.00;27.75;;;;;;;-0.11;80.25;100551.75;1455747;89;21302;-89
2022/02/23 05:14:24;;;;;;;36.75;21.23;;;;;;;-0.17;80.52;100553.33;1448776;89;21398;-88
2022/02/23 05:16:51;;;;;;;59.03;33.02;;;;;;;-0.23;80.84;100557.11;1453058;89;21339;-88
2022/02/23 05:19:18;;;;;;;52.53;32.28;;;;;;;-0.23;80.66;100555.80;1429419;89;21332;-88
2022/02/23 05:21:45;;;;;;;34.55;20.65;;;;;;;-0.23;80.71;100555.80;1456433;88;22197;-88
2022/02/23 05:24:12;;;;;;;28.30;18.27;;;;;;;-0.23;81.01;100558.41;1477868;88;21280;-89
2022/02/23 05:26:39;;;;;;;26.07;14.68;;;;;;;-0.24;80.84;100559.30;1460079;88;21354;-89
2022/02/23 05:29:07;;;;;;;27.58;14.00;;;;;;;-0.25;80.89;100568.03;1471244;88;22138;-88
2022/02/23 05:31:34;;;;;;;24.00;12.80;;;;;;;-0.28;81.25;100580.73;1477702;88;21583;-90
2022/02/23 05:34:01;;;;;;;23.67;13.35;;;;;;;-0.30;81.55;100590.81;1481267;88;21406;-89
2022/02/23 05:36:28;;;;;;;20.08;12.00;;;;;;;-0.34;81.38;100599.70;1489009;88;21347;-90
2022/02/23 05:38:55;;;;;;;25.02;12.80;;;;;;;-0.41;81.97;100609.53;1477351;88;21515;-87
2022/02/23 05:41:22;;;;;;;23.18;12.58;;;;;;;-0.44;82.32;100610.14;1450788;88;21391;-90
2022/02/23 05:43:49;;;;;;;17.82;10.63;;;;;;;-0.43;81.74;100615.72;1465107;88;21777;-91
2022/02/23 05:46:18;;;;;;;24.72;13.50;;;;;;;-0.42;82.04;100617.42;1449745;89;21398;-92
2022/02/23 05:51:18;;;;;;;25.40;13.40;;;;;;;-0.36;81.42;100624.47;1377983;87;21545;31
2022/02/23 05:53:46;;;;;;;24.45;13.08;;;;;;;-0.30;81.30;100631.13;1410050;86;24981;-94
2022/02/23 05:58:49;;;;;;;26.40;11.70;;;;;;;-0.26;81.22;100627.02;1399892;86;21801;31
2022/02/23 06:01:18;;;;;;;24.35;13.60;;;;;;;-0.20;81.13;100630.22;1410713;85;21447;31
2022/02/23 06:03:45;;;;;;;32.85;17.17;;;;;;;-0.13;80.92;100627.26;1442743;90;21400;-92
2022/02/23 06:06:13;;;;;;;32.28;16.20;;;;;;;-0.07;80.78;100626.95;1445497;90;21375;-92
2022/02/23 06:08:40;;;;;;;36.60;18.00;;;;;;;-0.03;80.50;100630.24;1441267;89;21382;-94
2022/02/23 06:11:08;;;;;;;38.50;17.37;;;;;;;0.01;80.36;100624.45;1424164;91;21472;-89
2022/02/23 06:13:36;;;;;;;28.20;13.68;;;;;;;0.03;80.47;100630.41;1448254;90;21434;-89
2022/02/23 06:16:04;;;;;;;25.65;15.38;;;;;;;0.09;80.41;100631.43;1426421;90;21295;-95
2022/02/23 06:18:31;;;;;;;22.87;13.23;;;;;;;0.10;80.25;100631.80;1395904;85;21770;-93
2022/02/23 06:20:59;;;;;;;30.57;15.33;;;;;;;0.12;80.11;100632.58;1404247;90;21409;-94
2022/02/23 06:25:56;;;;;;;28.32;14.23;;;;;;;0.18;80.26;100633.57;1464786;87;22153;-88
2022/02/23 06:28:23;;;;;;;27.37;13.03;;;;;;;0.22;80.38;100639.00;1461279;88;21440;-89
2022/02/23 06:30:50;;;;;;;32.53;14.47;;;;;;;0.19;80.74;100638.69;1456395;89;21381;-89
2022/02/23 06:33:22;;;;;;;30.40;12.53;;;;;;;0.24;81.09;100636.33;1438370;89;21930;-89
2022/02/23 06:35:46;;;;;;;29.27;13.93;;;;;;;0.30;80.62;100636.86;1449840;90;22004;-89
2022/02/23 06:38:13;;;;;;;28.43;14.30;;;;;;;0.31;80.63;100641.13;1460754;89;21537;-89
2022/02/23 06:40:41;;;;;;;24.80;13.13;;;;;;;0.34;80.62;100633.63;1458407;89;21649;-90
2022/02/23 06:43:08;;;;;;;24.30;12.97;;;;;;;0.39;80.67;100635.09;1451327;89;21637;-89
2022/02/23 06:45:35;;;;;;;24.73;12.33;;;;;;;0.47;80.59;100641.69;1457066;89;22036;-89
2022/02/23 06:48:02;;;;;;;23.80;12.03;;;;;;;0.55;80.37;100639.53;1439446;91;21616;-90
2022/02/23 06:50:29;;;;;;;25.73;15.27;;;;;;;0.61;79.95;100630.94;1435970;91;22539;-90
2022/02/23 06:52:57;;;;;;;24.93;12.13;;;;;;;0.62;79.62;100635.68;1451284;89;22574;-89
2022/02/23 06:55:24;;;;;;;23.53;11.80;;;;;;;0.68;79.72;100648.38;1454912;89;22578;-89
2022/02/23 06:57:51;;;;;;;22.20;10.27;;;;;;;0.72;79.37;100654.27;1463023;89;21798;-90
2022/02/23 07:00:18;;;;;;;16.30;9.10;;;;;;;0.71;79.08;100653.44;1452411;89;22743;-89
2022/02/23 07:02:46;;;;;;;18.17;9.63;;;;;;;0.72;78.92;100661.66;1431896;90;21652;-89
2022/02/23 07:05:15;;;;;;;15.60;9.53;;;;;;;0.69;78.65;100660.48;1459386;89;21640;-89
2022/02/23 07:07:42;;;;;;;16.97;9.77;;;;;;;0.70;78.54;100666.56;1463582;89;21593;-89
2022/02/23 07:10:12;;;;;;;18.40;9.57;;;;;;;0.79;78.76;100669.52;1453353;89;21625;-90
2022/02/23 07:12:40;;;;;;;26.85;12.43;;;;;;;0.95;78.34;100670.02;1436312;91;21872;-89
2022/02/23 07:15:07;;;;;;;17.23;9.43;;;;;;;0.96;77.64;100663.91;1435746;89;21360;-89
2022/02/23 07:17:35;;;;;;;40.63;17.60;;;;;;;1.08;77.79;100651.52;1460817;89;21847;-89
2022/02/23 07:20:03;;;;;;;41.97;20.47;;;;;;;1.21;77.21;100660.37;1461228;89;21653;-89
2022/02/23 07:22:30;;;;;;;47.40;23.40;;;;;;;1.37;77.31;100666.91;1471202;89;21658;-90
2022/02/23 07:24:58;;;;;;;32.03;15.27;;;;;;;1.57;77.27;100657.99;1448191;90;21675;-90
2022/02/23 07:27:26;;;;;;;38.80;18.97;;;;;;;1.75;76.51;100662.17;1435520;90;21673;-90
2022/02/23 07:29:53;;;;;;;42.13;19.60;;;;;;;1.92;75.77;100665.62;1435098;89;21474;-91
2022/02/23 07:32:26;;;;;;;46.27;20.83;;;;;;;2.11;75.42;100657.60;1424835;89;21594;-91
2022/02/23 07:34:50;;;;;;;31.63;14.07;;;;;;;2.33;75.53;100664.58;1463499;89;21678;-90
2022/02/23 07:37:17;;;;;;;19.30;9.93;;;;;;;2.57;74.19;100667.98;1452942;90;21644;-91
2022/02/23 07:39:45;;;;;;;22.00;10.17;;;;;;;2.74;73.05;100664.37;1433080;90;21609;-90
2022/02/23 07:42:12;;;;;;;26.13;11.60;;;;;;;2.90;71.25;100663.81;1410070;91;21740;-89
2022/02/23 07:44:39;;;;;;;24.00;11.47;;;;;;;3.07;71.26;100667.55;1447870;91;21841;-90
2022/02/23 07:47:07;;;;;;;22.20;10.13;;;;;;;3.24;70.67;100673.53;1433075;89;21661;-90
2022/02/23 07:49:34;;;;;;;22.70;11.53;;;;;;;3.46;68.92;100673.88;1464430;89;21871;-89
2022/02/23 07:52:02;;;;;;;25.50;11.60;;;;;;;3.46;68.92;100673.88;1457011;90;21868;-89
2022/02/23 07:54:29;;;;;;;20.70;9.73;;;;;;;3.81;67.46;100690.45;1424054;91;22009;-88
2022/02/23 07:56:57;;;;;;;19.73;8.33;;;;;;;3.81;67.46;100690.45;1434629;89;21776;-89
2022/02/23 07:59:24;;;;;;;17.67;7.87;;;;;;;4.04;65.38;100683.26;1461002;89;22122;-88
2022/02/23 08:01:51;;;;;;;16.83;7.17;;;;;;;4.03;65.57;100685.52;1461211;89;22076;-89
2022/02/23 08:04:21;;;;;;;19.13;8.73;;;;;;;3.84;64.88;100687.63;1442494;90;22216;-89
2022/02/23 08:06:48;;;;;;;27.50;9.80;;;;;;;3.81;65.88;100693.06;1444824;90;22194;-92
2022/02/23 08:09:15;;;;;;;25.73;5.80;;;;;;;3.73;66.46;100700.09;1443152;90;22144;-89
2022/02/23 08:11:49;;;;;;;12.00;5.67;;;;;;;3.74;65.17;100691.76;1440852;90;22254;-88
2022/02/23 08:14:16;;;;;;;16.67;5.57;;;;;;;3.72;64.90;100697.58;1444517;90;22114;-89
2022/02/23 08:19:37;;;;;;;9.67;4.30;;;;;;;3.69;65.21;100697.78;1444533;90;22269;-91
2022/02/23 08:22:14;;;;;;;11.53;4.23;;;;;;;3.65;64.76;100698.41;1445267;90;22152;-90
2022/02/23 08:24:45;;;;;;;14.07;5.47;;;;;;;3.73;65.72;100700.56;1441088;88;22292;-88
2022/02/23 08:27:19;;;;;;;12.03;4.65;;;;;;;3.70;64.05;100696.36;1460052;90;23027;-88
2022/02/23 08:29:48;;;;;;;16.20;5.73;;;;;;;3.66;64.54;100692.73;1442615;90;21528;-88
2022/02/23 08:32:18;;;;;;;19.20;5.63;;;;;;;3.63;65.32;100692.45;1446140;90;22275;-88
2022/02/23 08:34:47;;;;;;;14.53;5.07;;;;;;;3.63;65.21;100691.63;1439729;90;22112;-90
2022/02/23 08:37:16;;;;;;;13.97;4.60;;;;;;;3.69;65.74;100701.70;1426243;90;22133;-89
2022/02/23 08:39:44;;;;;;;20.77;5.07;;;;;;;3.76;66.11;100696.44;1438276;90;22939;-89
2022/02/23 08:42:14;;;;;;;10.03;4.40;;;;;;;3.86;66.16;100699.33;1420722;90;22290;-88
2022/02/23 08:44:42;;;;;;;12.93;5.37;;;;;;;3.97;66.22;100699.45;1515061;90;21923;-90
2022/02/23 08:47:10;;;;;;;19.77;8.43;;;;;;;4.03;65.44;100693.38;1441406;90;21564;-89
2022/02/23 08:49:38;;;;;;;17.93;8.40;;;;;;;4.11;65.54;100698.57;1447030;90;22086;-89
2022/02/23 08:52:07;;;;;;;10.77;5.63;;;;;;;4.19;64.86;100698.92;1437821;90;22092;-88
2022/02/23 08:54:35;;;;;;;23.00;5.10;;;;;;;4.15;64.51;100698.77;1441526;90;23319;-88
2022/02/23 08:57:03;;;;;;;13.13;4.27;;;;;;;4.10;64.35;100699.52;1442398;90;22279;-89
2022/02/23 08:59:31;;;;;;;14.30;4.80;;;;;;;4.07;64.46;100698.77;1440663;90;22240;-89
2022/02/23 09:01:58;;;;;;;17.20;5.07;;;;;;;4.06;64.42;100704.95;1438872;90;22056;-88
2022/02/23 09:04:25;;;;;;;16.17;5.30;;;;;;;4.00;64.44;100702.74;1440033;90;22061;-89
2022/02/23 09:06:55;;;;;;;19.23;5.00;;;;;;;3.98;64.98;100709.84;1443022;90;22058;-90
2022/02/23 09:09:22;;;;;;;18.83;6.60;;;;;;;3.92;64.95;100708.94;1448410;90;22308;-90
2022/02/23 09:11:50;;;;;;;12.07;4.63;;;;;;;3.93;65.06;100709.30;1443061;90;22283;-90
2022/02/23 09:14:17;;;;;;;14.43;5.03;;;;;;;3.96;65.39;100715.64;1438032;90;22241;-89
2022/02/23 09:16:45;;;;;;;13.47;5.23;;;;;;;4.04;65.76;100721.23;1440787;90;22075;-90
2022/02/23 09:19:13;;;;;;;12.77;5.00;;;;;;;4.09;65.23;100714.87;1441258;90;22063;-89
2022/02/23 09:21:41;;;;;;;16.70;5.27;;;;;;;4.10;65.67;100716.08;1438596;90;22220;-91
2022/02/23 09:24:09;;;;;;;11.27;4.13;;;;;;;4.11;66.05;100723.45;1438683;90;22223;-87
2022/02/23 09:26:37;;;;;;;17.37;5.97;;;;;;;4.02;66.15;100725.72;1439485;88;23208;-87
2022/02/23 09:29:06;;;;;;;14.33;5.37;;;;;;;3.99;67.46;100726.39;1440528;90;22999;-87
2022/02/23 09:31:36;;;;;;;15.10;4.53;;;;;;;4.01;67.76;100728.45;1442965;90;22409;-85
2022/02/23 09:34:03;;;;;;;19.70;6.40;;;;;;;4.04;68.04;100733.50;1439082;90;22157;-86
2022/02/23 09:36:32;;;;;;;13.27;6.10;;;;;;;4.02;68.42;100733.58;1438631;90;24122;-84
2022/02/23 09:38:59;;;;;;;12.43;4.77;;;;;;;4.02;69.15;100738.82;1439596;90;22169;-85
2022/02/23 09:41:28;;;;;;;12.37;4.80;;;;;;;4.02;69.43;100737.51;1438615;90;23183;-84
2022/02/23 09:43:55;;;;;;;14.70;5.03;;;;;;;4.04;69.74;100742.19;1422730;90;23773;-85
2022/02/23 09:46:24;;;;;;;16.43;6.30;;;;;;;4.04;70.26;100747.42;1439527;90;23190;-86
2022/02/23 09:48:59;;;;;;;20.40;7.07;;;;;;;4.06;70.57;100749.96;1441656;90;22202;-85
2022/02/23 09:51:26;;;;;;;20.53;6.73;;;;;;;4.09;71.35;100747.62;1439704;90;22231;-85
2022/02/23 09:53:55;;;;;;;10.77;5.40;;;;;;;4.10;71.50;100749.29;1441416;90;23368;-85
2022/02/23 09:56:25;;;;;;;16.47;6.17;;;;;;;4.11;71.93;100757.51;1443055;89;22220;-85
2022/02/23 09:58:55;;;;;;;16.93;6.60;;;;;;;4.16;73.08;100759.37;1453161;89;22116;-86
2022/02/23 10:01:27;;;;;;;15.70;6.65;;;;;;;4.11;73.49;100758.82;1446138;89;22217;-83
2022/02/23 10:03:55;;;;;;;15.17;6.27;;;;;;;4.15;73.37;100764.25;1446204;90;22154;-84
2022/02/23 10:06:36;;;;;;;21.07;7.33;;;;;;;4.19;74.44;100764.41;1448987;89;23771;-84
2022/02/23 10:09:12;;;;;;;17.52;7.95;;;;;;;4.20;74.58;100770.02;1426107;90;22095;-84
2022/02/23 10:11:43;;;;;;;24.50;9.47;;;;;;;4.26;75.22;100769.65;1404741;90;21488;-84
2022/02/23 10:14:11;;;;;;;22.50;7.45;;;;;;;4.28;76.36;100778.23;1449263;89;22940;-84
2022/02/23 10:16:47;;;;;;;20.77;8.60;;;;;;;4.26;76.36;100774.89;1450846;89;21533;-84
2022/02/23 10:19:18;;;;;;;27.53;10.90;;;;;;;4.25;75.80;100777.95;1444854;89;24489;-84
2022/02/23 10:21:59;;;;;;;;;;;;;;;4.31;76.24;100785.89;1445376;90;22104;-84
2022/02/23 10:24:38;;;;;;;16.80;6.83;;;;;;;4.29;77.19;100782.55;1429291;90;20307;-84
2022/02/23 10:27:09;;;;;;;14.43;6.00;;;;;;;4.26;76.60;100780.96;1456404;87;21522;-85
2022/02/23 10:29:52;;;;;;;12.33;6.23;;;;;;;4.23;76.49;100789.02;1469817;88;22158;-85
2022/02/23 10:32:25;;;;;;;18.57;7.03;;;;;;;4.23;76.87;100795.57;1457953;88;22045;-85
2022/02/23 10:34:59;;;;;;;21.53;11.07;;;;;;;4.18;77.37;100794.18;1461307;88;22202;-85
2022/02/23 10:37:31;;;;;;;20.17;8.83;;;;;;;4.19;78.06;100787.99;1468017;87;23154;-84
2022/02/23 10:40:00;;;;;;;20.00;9.80;;;;;;;4.24;77.61;100787.23;1461040;88;22248;-84
2022/02/23 10:42:33;;;;;;;19.77;8.43;;;;;;;4.27;77.75;100785.25;1464378;87;22136;-86
2022/02/23 10:45:02;;;;;;;18.47;6.97;;;;;;;4.32;77.96;100786.28;1461044;88;22539;-85
2022/02/23 10:47:36;;;;;;;26.17;8.90;;;;;;;4.34;78.30;100788.31;1465345;87;21404;-84
2022/02/23 10:50:24;;;;;;;20.27;8.67;;;;;;;4.41;78.12;100790.92;1456015;87;22032;-83
2022/02/23 10:52:58;;;;;;;24.33;10.90;;;;;;;4.47;79.12;100785.75;1466270;87;22146;-84
2022/02/23 10:55:34;;;;;;;23.93;9.67;;;;;;;4.51;78.75;100791.99;1465828;88;24203;-83
2022/02/23 10:58:06;;;;;;;16.33;7.53;;;;;;;4.57;78.89;100796.47;1466224;88;22289;-85
2022/02/23 11:00:43;;;;;;;23.97;9.43;;;;;;;4.62;78.40;100791.77;1461893;88;22286;-87
2022/02/23 11:03:11;;;;;;;16.33;7.93;;;;;;;4.67;78.48;100801.02;1462995;88;22293;-85
2022/02/23 11:05:40;;;;;;;22.03;10.30;;;;;;;4.73;78.78;100803.71;1458429;87;23276;-86
2022/02/23 11:08:11;;;;;;;19.30;9.17;;;;;;;4.75;78.35;100804.46;1428913;91;22149;-86
2022/02/23 11:10:36;;;;;;;21.70;9.17;;;;;;;4.77;78.32;100814.36;1456576;88;22116;-86
2022/02/23 11:13:04;;;;;;;19.43;8.80;;;;;;;4.74;78.64;100810.15;1462275;88;21375;-85
2022/02/23 11:15:32;;;;;;;21.27;11.03;;;;;;;4.82;78.46;100822.77;1457337;88;22044;-85
2022/02/23 11:18:01;;;;;;;21.03;8.13;;;;;;;4.85;78.50;100824.35;1459947;88;21273;-85
2022/02/23 11:20:46;;;;;;;16.53;7.93;;;;;;;4.85;78.50;100824.35;1462340;88;21345;-86
2022/02/23 11:23:22;;;;;;;22.30;7.10;;;;;;;4.91;79.14;100833.96;1449999;88;21354;-86
2022/02/23 11:25:52;;;;;;;22.90;9.60;;;;;;;4.86;79.13;100826.89;1450452;88;22970;-86
2022/02/23 11:28:30;;;;;;;16.73;8.25;;;;;;;4.96;78.99;100833.19;1462935;88;21666;-85
2022/02/23 11:31:06;;;;;;;22.37;10.20;;;;;;;5.03;78.70;100819.66;1446486;88;21345;-86
2022/02/23 11:34:07;;;;;;;21.17;9.63;;;;;;;5.07;78.63;100819.84;1462283;88;22412;-87
2022/02/23 11:36:44;;;;;;;19.47;8.70;;;;;;;5.09;79.04;100820.11;1466523;88;22217;-86